Time;durP1;ratioP1;P1;durP2;ratioP2;P2;SDS_P1;SDS_P2;PMS_P1;PMS_P2;Temp;Humidity;BMP_temperature;BMP_pressure;BME280_temperature;BME280_humidity;BME280_pressure;Samples;Min_cycle;Max_cycle;Signal;HPM_P1;HPM_P2
2022/11/29 00:01:04;;;;;;;;;;;8.60;99.90;;;;;;5059261;28;20489;-60
2022/11/29 00:03:30;;;;;;;112.18;33.97;;;8.70;99.90;;;;;;5052866;28;19962;-59
2022/11/29 00:05:55;;;;;;;111.95;32.10;;;8.60;99.90;;;;;;5069265;28;20044;-58
2022/11/29 00:08:22;;;;;;;98.67;31.90;;;8.60;99.90;;;;;;5067184;28;20515;-59
2022/11/29 00:10:48;;;;;;;112.32;34.22;;;8.60;99.90;;;;;;5069467;28;20554;-58
2022/11/29 00:13:15;;;;;;;115.13;33.60;;;8.60;99.90;;;;;;5066997;28;20127;-58
2022/11/29 00:15:41;;;;;;;93.03;31.10;;;8.60;99.90;;;;;;5067426;28;20047;-60
2022/11/29 00:18:06;;;;;;;104.00;30.17;;;8.70;99.90;;;;;;5067439;28;20044;-57
2022/11/29 00:20:33;;;;;;;128.90;34.85;;;8.70;99.90;;;;;;5069849;28;20047;-60
2022/11/29 00:22:59;;;;;;;;;;;8.70;99.90;;;;;;5063621;28;20409;-60
2022/11/29 00:25:26;;;;;;;99.28;29.85;;;8.60;99.90;;;;;;5054536;28;19916;-60
2022/11/29 00:27:51;;;;;;;107.82;33.47;;;8.60;99.90;;;;;;5067264;28;20087;-61
2022/11/29 00:30:18;;;;;;;101.25;31.35;;;8.60;99.90;;;;;;5069406;28;20123;-60
2022/11/29 00:32:44;;;;;;;101.65;31.30;;;8.60;99.90;;;;;;5069049;28;20078;-59
2022/11/29 00:35:09;;;;;;;103.23;33.33;;;8.70;99.90;;;;;;5063291;28;20084;-60
2022/11/29 00:37:35;;;;;;;113.93;32.97;;;8.70;99.90;;;;;;5069573;28;20043;-60
2022/11/29 00:40:01;;;;;;;116.95;36.63;;;8.60;99.90;;;;;;5059234;28;20389;-60
2022/11/29 00:42:27;;;;;;;112.43;36.05;;;8.70;99.90;;;;;;5058962;28;20037;-60
2022/11/29 00:44:52;;;;;;;106.40;33.47;;;8.60;99.90;;;;;;5047586;28;20037;-60
2022/11/29 00:47:18;;;;;;;127.33;35.37;;;8.60;99.90;;;;;;5052438;28;20448;-60
2022/11/29 00:49:43;;;;;;;129.40;33.73;;;8.60;99.90;;;;;;5067955;28;20492;-60
2022/11/29 00:52:09;;;;;;;102.07;31.60;;;8.60;99.90;;;;;;5067787;28;20040;-59
2022/11/29 00:54:34;;;;;;;108.17;33.93;;;8.60;99.90;;;;;;5054739;28;20045;-58
2022/11/29 00:57:00;;;;;;;124.73;33.23;;;8.60;99.90;;;;;;5066172;28;20310;-59
2022/11/29 00:59:25;;;;;;;94.03;31.07;;;8.60;99.90;;;;;;5067340;28;20386;-60
2022/11/29 01:01:51;;;;;;;110.10;31.83;;;8.70;99.90;;;;;;5068398;28;20308;-58
2022/11/29 01:04:17;;;;;;;95.13;29.47;;;8.60;99.90;;;;;;5068593;28;20115;-58
2022/11/29 01:06:42;;;;;;;110.83;31.23;;;8.60;99.90;;;;;;5060531;28;20387;-58
2022/11/29 01:09:08;;;;;;;116.93;30.43;;;8.60;99.90;;;;;;5049533;28;20040;-60
2022/11/29 01:11:33;;;;;;;97.80;30.10;;;8.70;99.90;;;;;;5048835;28;20517;-57
2022/11/29 01:14:01;;;;;;;130.85;34.20;;;8.60;99.90;;;;;;5047991;28;20090;-59
2022/11/29 01:16:28;;;;;;;112.68;30.85;;;8.60;99.90;;;;;;5049049;28;20041;-56
2022/11/29 01:18:54;;;;;;;136.50;35.17;;;8.60;99.90;;;;;;5050606;28;20429;-58
2022/11/29 01:21:22;;;;;;;126.90;32.67;;;8.60;99.90;;;;;;5052999;28;20491;-58
2022/11/29 01:23:50;;;;;;;128.02;33.35;;;8.60;99.90;;;;;;5049806;28;20055;-58
2022/11/29 01:26:18;;;;;;;116.70;29.25;;;8.60;99.90;;;;;;5052039;28;20033;-57
2022/11/29 01:28:45;;;;;;;122.50;32.20;;;8.60;99.90;;;;;;5067624;28;20044;-59
2022/11/29 01:31:14;;;;;;;119.40;30.15;;;8.60;99.90;;;;;;5072145;28;20041;-57
2022/11/29 01:33:40;;;;;;;126.95;33.78;;;8.60;99.90;;;;;;5070941;28;20405;-59
2022/11/29 01:36:07;;;;;;;103.75;28.90;;;8.60;99.90;;;;;;5071955;28;20044;-59
2022/11/29 01:38:33;;;;;;;;;;;8.60;99.90;;;;;;5068829;28;20041;-58
2022/11/29 01:41:14;;;;;;;115.82;30.27;;;8.70;99.90;;;;;;5070610;28;19923;-59
2022/11/29 01:44:12;;;;;;;112.72;29.42;;;8.60;99.90;;;;;;5050513;28;20040;-58
2022/11/29 01:46:41;;;;;;;131.82;32.92;;;8.70;99.90;;;;;;5051674;28;20395;-61
2022/11/29 01:49:15;;;;;;;127.93;32.83;;;8.70;99.90;;;;;;5061115;28;20044;-61
2022/11/29 01:51:51;;;;;;;121.93;31.42;;;8.70;99.90;;;;;;5071902;28;20072;-58
2022/11/29 01:54:17;;;;;;;108.97;30.67;;;8.70;99.90;;;;;;5070520;28;20037;-59
2022/11/29 01:56:46;;;;;;;117.32;29.80;;;8.70;99.90;;;;;;5070815;28;20517;-58
2022/11/29 01:59:16;;;;;;;114.85;30.73;;;8.70;99.90;;;;;;5055833;28;20037;-57
2022/11/29 02:01:41;;;;;;;118.28;30.33;;;8.70;99.90;;;;;;5051850;28;20075;-60
2022/11/29 02:04:07;;;;;;;106.27;29.77;;;8.70;99.90;;;;;;5050956;28;20299;-60
2022/11/29 02:06:34;;;;;;;104.47;28.25;;;8.70;99.90;;;;;;5051186;28;20045;-57
2022/11/29 02:09:00;;;;;;;98.80;28.02;;;8.70;99.90;;;;;;5052799;28;20089;-58
2022/11/29 02:11:29;;;;;;;104.13;28.88;;;8.70;99.90;;;;;;5059723;28;20159;-59
2022/11/29 02:14:03;;;;;;;92.70;28.58;;;8.70;99.90;;;;;;5070170;28;20563;-58
2022/11/29 02:16:55;;;;;;;114.47;31.23;;;8.70;99.90;;;;;;5070581;28;20135;-59
2022/11/29 02:19:53;;;;;;;98.90;28.15;;;8.70;99.90;;;;;;5069995;28;20032;-57
2022/11/29 02:22:37;;;;;;;102.57;28.73;;;8.60;99.90;;;;;;5056501;28;20148;-58
2022/11/29 02:25:40;;;;;;;107.70;27.50;;;8.60;99.90;;;;;;5070014;28;20066;-59
2022/11/29 02:28:40;;;;;;;90.78;26.17;;;8.60;99.90;;;;;;5071420;28;20048;-60
2022/11/29 02:31:42;;;;;;;89.43;26.00;;;8.60;99.90;;;;;;5059707;28;20112;-58
2022/11/29 02:34:19;;;;;;;97.25;25.52;;;8.60;99.90;;;;;;5051637;28;20683;-59
2022/11/29 02:37:05;;;;;;;99.60;28.67;;;8.60;99.90;;;;;;5051023;28;20045;-59
2022/11/29 02:40:06;;;;;;;93.55;26.77;;;8.60;99.90;;;;;;5050953;28;20131;-60
2022/11/29 02:42:48;;;;;;;94.20;27.48;;;8.60;99.90;;;;;;5006915;28;20052;-58
2022/11/29 02:45:25;;;;;;;94.93;26.30;;;8.60;99.90;;;;;;5049924;28;20052;-58
2022/11/29 02:48:17;;;;;;;109.13;28.42;;;8.60;99.90;;;;;;5050654;28;20041;-58
2022/11/29 02:51:14;;;;;;;114.22;28.25;;;8.70;99.90;;;;;;5056675;28;20055;-60
2022/11/29 02:53:46;;;;;;;114.40;27.00;;;8.60;99.90;;;;;;5067710;28;20425;-60
2022/11/29 02:56:36;;;;;;;106.13;28.67;;;8.70;99.90;;;;;;5070210;28;20051;-60
2022/11/29 02:59:19;;;;;;;117.32;29.95;;;8.60;99.90;;;;;;5069451;28;20282;-58
2022/11/29 03:02:13;;;;;;;120.88;30.35;;;8.70;99.90;;;;;;5059877;28;20087;-59
2022/11/29 03:05:12;;;;;;;183.85;36.13;;;8.70;99.90;;;;;;5048510;28;20076;-60
2022/11/29 03:08:09;;;;;;;128.43;30.58;;;8.70;99.90;;;;;;5050406;28;20537;-59
2022/11/29 03:11:01;;;;;;;103.32;29.55;;;8.70;99.90;;;;;;5050236;28;20041;-58
2022/11/29 03:13:42;;;;;;;81.40;25.92;;;8.60;99.90;;;;;;5049196;28;20063;-60
2022/11/29 03:16:18;;;;;;;75.35;22.40;;;8.50;99.90;;;;;;5049612;28;20111;-59
2022/11/29 03:19:10;;;;;;;68.88;22.30;;;8.50;99.90;;;;;;5050793;28;20041;-60
2022/11/29 03:21:40;;;;;;;64.40;20.67;;;8.40;99.90;;;;;;5052666;28;20036;-58
2022/11/29 03:24:35;;;;;;;61.13;20.45;;;8.40;99.90;;;;;;5053439;28;20389;-58
2022/11/29 03:27:08;;;;;;;62.38;23.55;;;8.40;99.90;;;;;;5066468;28;20429;-59
2022/11/29 03:29:57;;;;;;;71.53;22.23;;;8.40;99.90;;;;;;5050139;28;20476;-57
2022/11/29 03:32:53;;;;;;;91.30;25.92;;;8.30;99.90;;;;;;5066171;28;20040;-59
2022/11/29 03:35:46;;;;;;;78.30;23.70;;;8.30;99.90;;;;;;5057639;28;20045;-58
2022/11/29 03:38:24;;;;;;;86.15;24.48;;;8.20;99.90;;;;;;5049553;28;20124;-57
2022/11/29 03:40:58;;;;;;;78.65;25.05;;;8.20;99.90;;;;;;5057652;28;20040;-59
2022/11/29 03:43:38;;;;;;;85.13;25.25;;;8.30;99.90;;;;;;5064192;28;20033;-56
2022/11/29 03:46:46;;;;;;;82.75;28.25;;;8.20;99.90;;;;;;5069434;28;20044;-58
2022/11/29 03:49:16;;;;;;;;;;;8.20;99.90;;;;;;5002577;28;20420;-57
2022/11/29 03:52:20;;;;;;;102.57;28.92;;;8.20;99.90;;;;;;5049828;28;19916;-57
2022/11/29 03:55:04;;;;;;;154.65;30.25;;;8.20;99.90;;;;;;5017875;28;20053;-57
2022/11/29 03:57:37;;;;;;;170.45;32.30;;;8.20;99.90;;;;;;5049475;28;20040;-58
2022/11/29 04:00:09;;;;;;;133.32;29.92;;;8.20;99.90;;;;;;5049805;28;20036;-57
2022/11/29 04:02:54;;;;;;;75.38;26.05;;;8.20;99.90;;;;;;5049531;28;20084;-59
2022/11/29 04:05:45;;;;;;;89.28;26.48;;;8.10;99.90;;;;;;5059507;28;20048;-59
2022/11/29 04:08:41;;;;;;;95.90;27.83;;;8.10;99.90;;;;;;5060096;28;20052;-58
2022/11/29 04:11:53;;;;;;;93.90;26.52;;;8.00;99.90;;;;;;5069710;28;20051;-59
2022/11/29 04:14:55;;;;;;;101.78;28.95;;;8.00;99.90;;;;;;5068615;28;20437;-58
2022/11/29 04:17:30;;;;;;;77.93;25.80;;;8.00;99.90;;;;;;5049243;28;20045;-57
2022/11/29 04:19:58;;;;;;;96.93;25.90;;;8.00;99.90;;;;;;5049083;28;20045;-56
2022/11/29 04:22:53;;;;;;;102.13;27.23;;;8.00;99.90;;;;;;5049752;28;20119;-56
2022/11/29 04:25:53;;;;;;;92.47;26.23;;;7.90;99.90;;;;;;5048636;28;20036;-57
2022/11/29 04:28:55;;;;;;;72.03;25.70;;;7.90;99.90;;;;;;5049646;28;20037;-58
2022/11/29 04:31:30;;;;;;;83.63;26.35;;;7.90;99.90;;;;;;5051370;28;20045;-58
2022/11/29 04:34:41;;;;;;;96.03;28.27;;;7.90;99.90;;;;;;5048289;28;20413;-59
2022/11/29 04:37:24;;;;;;;72.60;24.70;;;7.90;99.90;;;;;;5049246;28;20506;-58
2022/11/29 04:39:59;;;;;;;105.95;28.65;;;7.90;99.90;;;;;;5053995;28;20036;-60
2022/11/29 04:42:49;;;;;;;111.57;28.52;;;7.90;99.90;;;;;;5054792;28;20055;-60
2022/11/29 04:46:01;;;;;;;87.38;27.58;;;7.90;99.90;;;;;;5056519;28;20037;-58
2022/11/29 04:48:54;;;;;;;93.70;28.08;;;7.90;99.90;;;;;;5068546;28;20242;-58
2022/11/29 04:51:41;;;;;;;88.00;26.98;;;7.90;99.90;;;;;;5056088;28;20063;-60
2022/11/29 04:54:20;;;;;;;149.15;32.13;;;7.90;99.90;;;;;;5049486;28;20415;-59
2022/11/29 04:56:54;;;;;;;113.85;28.33;;;7.90;99.90;;;;;;5052530;28;20087;-59
2022/11/29 04:59:48;;;;;;;115.32;28.05;;;7.90;99.90;;;;;;5052508;28;20041;-57
2022/11/29 05:02:35;;;;;;;116.30;28.25;;;7.90;99.90;;;;;;5053713;28;20087;-57
2022/11/29 05:05:38;;;;;;;123.93;29.73;;;7.90;99.90;;;;;;5051324;28;20045;-58
2022/11/29 05:08:30;;;;;;;109.05;28.50;;;7.80;99.90;;;;;;5052427;28;20075;-60
2022/11/29 05:11:23;;;;;;;119.47;28.70;;;7.80;99.90;;;;;;5052961;28;20067;-59
2022/11/29 05:13:52;;;;;;;131.65;27.10;;;7.80;99.90;;;;;;5052744;28;20126;-57
2022/11/29 05:16:43;;;;;;;127.32;30.95;;;7.80;99.90;;;;;;5050600;28;20139;-59
2022/11/29 05:19:40;;;;;;;133.98;28.75;;;7.80;99.90;;;;;;5052664;28;20043;-60
2022/11/29 05:22:47;;;;;;;89.35;26.98;;;7.80;99.90;;;;;;5052299;28;20051;-60
2022/11/29 05:25:39;;;;;;;99.93;28.17;;;7.80;99.90;;;;;;5071237;28;20446;-60
2022/11/29 05:28:23;;;;;;;103.47;29.13;;;7.80;99.90;;;;;;5071670;28;20051;-58
2022/11/29 05:31:09;;;;;;;97.40;29.80;;;7.80;99.90;;;;;;5072558;28;20052;-58
2022/11/29 05:33:44;;;;;;;159.55;32.28;;;7.80;99.90;;;;;;5053970;28;20128;-57
2022/11/29 05:36:32;;;;;;;147.90;33.15;;;7.80;99.90;;;;;;5052268;28;20390;-58
2022/11/29 05:39:19;;;;;;;104.97;30.80;;;7.80;99.90;;;;;;5010560;28;20445;-60
2022/11/29 05:41:51;;;;;;;135.75;30.45;;;7.80;99.90;;;;;;5052530;28;20036;-58
2022/11/29 05:44:28;;;;;;;199.82;35.47;;;7.80;99.90;;;;;;5058585;28;20041;-57
2022/11/29 05:47:03;;;;;;;158.07;32.15;;;7.80;99.90;;;;;;5072136;28;20051;-55
2022/11/29 05:49:47;;;;;;;195.77;32.13;;;7.80;99.90;;;;;;5071192;28;20048;-60
2022/11/29 05:52:49;;;;;;;198.77;34.47;;;7.80;99.90;;;;;;5072073;28;20041;-57
2022/11/29 05:55:30;;;;;;;174.55;30.80;;;7.80;99.90;;;;;;5068531;28;20040;-57
2022/11/29 05:58:09;;;;;;;127.43;28.10;;;7.80;99.90;;;;;;5071657;28;20040;-57
2022/11/29 06:00:47;;;;;;;173.35;32.00;;;7.80;99.90;;;;;;5087899;28;20078;-57
2022/11/29 06:03:54;;;;;;;158.40;30.95;;;7.80;99.90;;;;;;5090761;28;20054;-59
2022/11/29 06:06:43;;;;;;;138.98;29.92;;;7.70;99.90;;;;;;4979492;28;20075;-60
2022/11/29 06:09:27;;;;;;;101.78;27.83;;;7.70;99.90;;;;;;5047600;28;20052;-58
2022/11/29 06:12:12;;;;;;;158.88;31.95;;;7.70;99.90;;;;;;5051329;28;20036;-59
2022/11/29 06:15:27;;;;;;;169.60;31.48;;;7.70;99.90;;;;;;5050351;28;20044;-59
2022/11/29 06:18:17;;;;;;;180.57;30.85;;;7.70;99.90;;;;;;4969715;28;20515;-57
2022/11/29 06:21:09;;;;;;;148.75;29.75;;;7.70;99.90;;;;;;4978858;28;20053;-57
2022/11/29 06:23:56;;;;;;;120.53;27.45;;;7.70;99.90;;;;;;4987664;28;20058;-59
2022/11/29 06:27:06;;;;;;;110.78;25.38;;;7.70;99.90;;;;;;4983469;28;20035;-59
2022/11/29 06:29:36;;;;;;;193.50;33.17;;;7.70;99.90;;;;;;4936042;29;20079;-59
2022/11/29 06:32:24;;;;;;;151.23;29.35;;;7.70;99.90;;;;;;4940911;29;20039;-59
2022/11/29 06:35:17;;;;;;;184.43;30.30;;;7.60;99.90;;;;;;4929910;29;20059;-58
2022/11/29 06:37:47;;;;;;;195.10;30.30;;;7.60;99.90;;;;;;4940719;29;20050;-59
2022/11/29 06:40:14;;;;;;;222.88;32.90;;;7.60;99.90;;;;;;4931245;29;20070;-58
2022/11/29 06:42:40;;;;;;;194.15;29.38;;;7.60;99.90;;;;;;4942805;28;20472;-59
2022/11/29 06:45:07;;;;;;;181.40;31.50;;;7.50;99.90;;;;;;4968029;28;20213;-59
2022/11/29 06:47:49;;;;;;;163.82;29.02;;;7.50;99.90;;;;;;4972153;28;20055;-60
2022/11/29 06:50:53;;;;;;;172.88;33.90;;;7.50;99.90;;;;;;5013987;28;20046;-58
2022/11/29 06:53:28;;;;;;;156.68;26.27;;;7.40;99.90;;;;;;5017371;28;20168;-59
2022/11/29 06:56:05;;;;;;;171.07;31.50;;;7.40;99.90;;;;;;5022275;28;20121;-58
2022/11/29 06:58:31;;;;;;;118.75;27.75;;;7.40;99.90;;;;;;5012212;28;20042;-57
2022/11/29 07:01:15;;;;;;;177.50;30.38;;;7.40;99.90;;;;;;5055742;28;20052;-59
2022/11/29 07:04:01;;;;;;;183.02;28.98;;;7.40;99.90;;;;;;5068897;28;20037;-60
2022/11/29 07:06:27;;;;;;;207.48;29.13;;;7.40;99.90;;;;;;5052494;28;20106;-59
2022/11/29 07:08:59;;;;;;;216.43;33.20;;;7.40;99.90;;;;;;5050781;28;20044;-56
2022/11/29 07:11:26;;;;;;;190.00;25.98;;;7.30;99.90;;;;;;5050615;28;20486;-59
2022/11/29 07:13:52;;;;;;;206.50;29.48;;;7.30;99.90;;;;;;5064028;28;20123;-56
2022/11/29 07:16:32;;;;;;;164.50;25.15;;;7.30;99.90;;;;;;5066281;28;20056;-57
2022/11/29 07:19:10;;;;;;;167.77;27.15;;;7.30;99.90;;;;;;5058701;28;20045;-57
2022/11/29 07:22:07;;;;;;;139.05;25.05;;;7.30;99.90;;;;;;5061980;28;20085;-60
2022/11/29 07:25:27;;;;;;;116.95;24.17;;;7.30;99.90;;;;;;5053495;28;20087;-59
2022/11/29 07:28:11;;;;;;;135.32;27.67;;;7.20;99.90;;;;;;5024571;28;20048;-58
2022/11/29 07:30:49;;;;;;;190.93;26.98;;;7.20;99.90;;;;;;5066206;28;20387;-61
2022/11/29 07:33:28;;;;;;;187.52;29.20;;;7.20;99.90;;;;;;5065551;28;20107;-58
2022/11/29 07:36:16;;;;;;;173.13;28.83;;;7.20;99.90;;;;;;5085214;28;20145;-59
2022/11/29 07:38:54;;;;;;;156.85;27.63;;;7.20;99.90;;;;;;5069103;28;20036;-59
2022/11/29 07:41:41;;;;;;;117.50;24.15;;;7.20;99.90;;;;;;5069055;28;20513;-58
2022/11/29 07:44:20;;;;;;;124.68;25.77;;;7.20;99.90;;;;;;5048738;28;20468;-60
2022/11/29 07:46:45;;;;;;;104.40;24.00;;;7.20;99.90;;;;;;5067916;28;20052;-60
2022/11/29 07:49:11;;;;;;;119.93;24.13;;;7.20;99.90;;;;;;5069644;28;20485;-61
2022/11/29 07:51:36;;;;;;;134.50;24.40;;;7.20;99.90;;;;;;5059973;28;20505;-61
2022/11/29 07:54:03;;;;;;;124.43;22.23;;;7.20;99.90;;;;;;5048643;28;20066;-61
2022/11/29 07:56:28;;;;;;;123.85;24.05;;;7.20;99.90;;;;;;5059803;28;20040;-61
2022/11/29 07:58:54;;;;;;;98.13;21.33;;;7.20;99.90;;;;;;5069907;28;20118;-58
2022/11/29 08:01:19;;;;;;;114.13;23.50;;;7.20;99.90;;;;;;5067791;28;20073;-60
2022/11/29 08:03:45;;;;;;;109.70;23.93;;;7.20;99.90;;;;;;5068590;28;20040;-58
2022/11/29 08:06:10;;;;;;;107.87;24.70;;;7.20;99.90;;;;;;5062895;28;20032;-57
2022/11/29 08:08:36;;;;;;;82.23;24.73;;;7.20;99.90;;;;;;5057074;28;20166;-57
2022/11/29 08:11:08;;;;;;;99.27;23.53;;;7.20;99.90;;;;;;5066691;28;20036;-54
2022/11/29 08:13:33;;;;;;;157.95;26.65;;;7.30;99.90;;;;;;5049456;28;20037;-57
2022/11/29 08:15:59;;;;;;;148.93;26.67;;;7.30;99.90;;;;;;5050598;28;20120;-59
2022/11/29 08:18:24;;;;;;;133.33;25.73;;;7.30;99.90;;;;;;5069066;28;20029;-58
2022/11/29 08:20:50;;;;;;;152.97;26.10;;;7.30;99.90;;;;;;5069517;28;20039;-54
2022/11/29 08:23:15;;;;;;;135.43;24.87;;;7.30;99.90;;;;;;5066663;28;20104;-58
2022/11/29 08:25:41;;;;;;;135.97;26.20;;;7.30;99.90;;;;;;5068650;28;20514;-59
2022/11/29 08:28:07;;;;;;;137.60;24.57;;;7.30;99.90;;;;;;5069831;28;20448;-59
2022/11/29 08:30:33;;;;;;;139.73;27.70;;;7.30;99.90;;;;;;5073951;28;20309;-56
2022/11/29 08:32:58;;;;;;;151.52;27.65;;;7.40;99.90;;;;;;5070667;28;20508;-57
2022/11/29 08:35:24;;;;;;;146.63;27.53;;;7.40;99.90;;;;;;5070945;28;20457;-57
2022/11/29 08:37:50;;;;;;;141.67;30.00;;;7.40;99.90;;;;;;5060756;28;20044;-60
2022/11/29 08:40:16;;;;;;;96.32;26.00;;;7.40;99.90;;;;;;5052745;28;20116;-58
2022/11/29 08:42:41;;;;;;;134.63;28.67;;;7.40;99.90;;;;;;5055511;28;20494;-61
2022/11/29 08:45:08;;;;;;;94.47;28.00;;;7.40;99.90;;;;;;5052177;28;20110;-61
2022/11/29 08:47:37;;;;;;;79.15;24.95;;;7.50;99.90;;;;;;5058635;28;20111;-60
2022/11/29 08:50:11;;;;;;;66.20;23.40;;;7.50;99.90;;;;;;5065001;28;20517;-59
2022/11/29 08:55:26;;;;;;;67.95;23.08;;;7.50;99.90;;;;;;5052754;28;20049;-58
2022/11/29 08:57:54;;;;;;;93.10;25.33;;;7.50;99.90;;;;;;5061487;28;20452;-60
2022/11/29 09:00:20;;;;;;;100.93;27.02;;;7.60;99.90;;;;;;5072653;28;20083;-60
2022/11/29 09:02:46;;;;;;;136.45;32.38;;;7.60;99.90;;;;;;5063625;28;20043;-58
2022/11/29 09:05:12;;;;;;;121.18;30.08;;;7.60;99.90;;;;;;5051331;28;20552;-57
2022/11/29 09:07:38;;;;;;;115.55;29.15;;;7.60;99.90;;;;;;5065998;28;20493;-59
2022/11/29 09:10:07;;;;;;;91.47;26.67;;;7.70;99.90;;;;;;5051916;28;20048;-60
2022/11/29 09:12:36;;;;;;;59.25;24.20;;;7.70;99.90;;;;;;5055686;28;20029;-59
2022/11/29 09:15:08;;;;;;;110.20;28.45;;;7.70;99.90;;;;;;5071313;28;20488;-60
2022/11/29 09:17:33;;;;;;;112.97;27.95;;;7.70;99.90;;;;;;5068772;28;20060;-62
2022/11/29 09:19:59;;;;;;;75.57;25.83;;;7.70;99.90;;;;;;5070797;28;20036;-60
2022/11/29 09:22:24;;;;;;;106.53;27.23;;;7.70;99.90;;;;;;5072129;28;20278;-60
2022/11/29 09:24:50;;;;;;;73.30;23.13;;;7.70;99.90;;;;;;5055125;28;20045;-61
2022/11/29 09:27:16;;;;;;;66.55;26.17;;;7.70;99.90;;;;;;5072437;28;20037;-59
2022/11/29 09:29:42;;;;;;;69.25;27.05;;;7.80;99.90;;;;;;5054940;28;20112;-60
2022/11/29 09:32:08;;;;;;;68.67;23.67;;;7.80;99.90;;;;;;5052166;28;20446;-57
2022/11/29 09:34:34;;;;;;;67.78;24.30;;;7.80;99.90;;;;;;5064833;28;20434;-59
2022/11/29 09:36:59;;;;;;;76.73;23.97;;;7.80;99.90;;;;;;5070483;28;20097;-62
2022/11/29 09:39:25;;;;;;;83.30;25.70;;;7.80;99.90;;;;;;5058644;28;20525;-59
2022/11/29 09:42:21;;;;;;;74.00;26.50;;;7.80;99.90;;;;;;5052269;28;20037;-59
2022/11/29 09:45:17;;;;;;;77.00;26.25;;;7.80;99.90;;;;;;5061156;28;20314;-59
2022/11/29 09:48:17;;;;;;;79.95;25.88;;;7.90;99.90;;;;;;5057178;28;20033;-58
2022/11/29 09:51:04;;;;;;;69.85;24.05;;;7.90;99.90;;;;;;5062818;28;20036;-60
2022/11/29 09:53:56;;;;;;;72.45;24.92;;;7.90;99.90;;;;;;5070271;28;20051;-59
2022/11/29 09:56:41;;;;;;;62.25;22.15;;;7.90;99.90;;;;;;5067837;28;20050;-59
2022/11/29 09:59:14;;;;;;;58.97;23.20;;;7.90;99.90;;;;;;5051808;28;20067;-59
2022/11/29 10:01:46;;;;;;;67.43;22.90;;;7.90;99.90;;;;;;5064881;28;20454;-61
2022/11/29 10:04:18;;;;;;;60.50;21.98;;;7.90;99.90;;;;;;5069421;28;20049;-60
2022/11/29 10:06:54;;;;;;;65.65;22.45;;;7.90;99.90;;;;;;5070047;28;20094;-61
2022/11/29 10:09:28;;;;;;;73.03;25.38;;;8.00;99.90;;;;;;5069832;28;20078;-61
2022/11/29 10:12:21;;;;;;;63.72;23.95;;;8.00;99.90;;;;;;5052120;28;20033;-61
2022/11/29 10:14:49;;;;;;;63.00;24.27;;;8.00;99.90;;;;;;5059635;28;20069;-61
2022/11/29 10:17:33;;;;;;;51.70;21.55;;;8.00;99.90;;;;;;5052274;28;20091;-60
2022/11/29 10:20:15;;;;;;;67.30;22.88;;;8.00;99.90;;;;;;5069794;28;20740;-60
2022/11/29 10:22:54;;;;;;;54.92;23.17;;;8.00;99.90;;;;;;5068149;28;20044;-61
2022/11/29 10:25:42;;;;;;;58.38;21.90;;;8.00;99.90;;;;;;5061086;28;20039;-58
2022/11/29 10:28:13;;;;;;;51.63;20.38;;;8.10;99.90;;;;;;5058880;28;20037;-59
2022/11/29 10:30:40;;;;;;;59.65;22.73;;;8.10;99.90;;;;;;5054311;28;20045;-61
2022/11/29 10:33:16;;;;;;;54.15;22.05;;;8.10;99.90;;;;;;5056290;28;20039;-57
2022/11/29 10:35:42;;;;;;;59.33;22.70;;;8.10;99.90;;;;;;5069625;28;20029;-58
2022/11/29 10:38:12;;;;;;;63.20;22.55;;;8.10;99.90;;;;;;5059308;28;20299;-59
2022/11/29 10:40:40;;;;;;;55.05;22.27;;;8.10;99.90;;;;;;5059328;28;20037;-59
2022/11/29 10:43:07;;;;;;;66.70;24.77;;;8.10;99.90;;;;;;5056837;28;20068;-59
2022/11/29 10:45:44;;;;;;;52.03;22.13;;;8.20;99.90;;;;;;5059206;28;20048;-57
2022/11/29 10:48:13;;;;;;;58.10;22.77;;;8.20;99.90;;;;;;5057894;28;20111;-59
2022/11/29 10:50:42;;;;;;;55.80;23.00;;;8.20;99.90;;;;;;5065719;28;20040;-58
2022/11/29 10:53:14;;;;;;;54.75;21.83;;;8.20;99.90;;;;;;5061980;28;20062;-57
2022/11/29 10:55:52;;;;;;;51.55;21.48;;;8.20;99.90;;;;;;5069631;28;20051;-60
2022/11/29 10:58:25;;;;;;;49.92;20.92;;;8.30;99.90;;;;;;5064591;28;20049;-60
2022/11/29 11:01:06;;;;;;;41.47;19.55;;;8.30;99.90;;;;;;5057689;28;20410;-60
2022/11/29 11:03:38;;;;;;;38.92;18.13;;;8.30;99.90;;;;;;5060179;28;20454;-60
2022/11/29 11:06:18;;;;;;;42.10;18.45;;;8.40;99.90;;;;;;5058966;28;20097;-58
2022/11/29 11:08:47;;;;;;;43.83;19.05;;;8.40;99.90;;;;;;5065950;28;20036;-58
2022/11/29 11:11:13;;;;;;;46.75;20.15;;;8.40;99.90;;;;;;5057581;28;20048;-60
2022/11/29 11:13:40;;;;;;;46.28;18.75;;;8.50;99.90;;;;;;5054944;28;20044;-58
2022/11/29 11:16:15;;;;;;;41.72;18.23;;;8.50;99.90;;;;;;5057145;28;20029;-58
2022/11/29 11:18:41;;;;;;;41.92;18.23;;;8.50;99.90;;;;;;5054613;28;20469;-59
2022/11/29 11:21:09;;;;;;;38.30;18.50;;;8.50;99.90;;;;;;5070457;28;20064;-60
2022/11/29 11:23:38;;;;;;;39.33;17.00;;;8.50;99.90;;;;;;5068350;28;20550;-59
2022/11/29 11:26:12;;;;;;;35.63;18.15;;;8.50;99.90;;;;;;5069694;28;20036;-60
2022/11/29 11:28:41;;;;;;;44.25;18.50;;;8.60;99.90;;;;;;5067065;28;20098;-59
2022/11/29 11:31:09;;;;;;;41.95;17.58;;;8.60;99.90;;;;;;5049742;28;20041;-61
2022/11/29 11:33:43;;;;;;;35.17;17.52;;;8.60;99.90;;;;;;5049044;28;20037;-60
2022/11/29 11:36:18;;;;;;;44.25;17.95;;;8.60;99.90;;;;;;5065817;28;20040;-61
2022/11/29 11:38:57;;;;;;;50.75;17.48;;;8.60;99.90;;;;;;5067136;28;20155;-59
2022/11/29 11:44:48;;;;;;;37.03;17.35;;;8.60;99.90;;;;;;5051415;28;20044;-61
2022/11/29 11:47:20;;;;;;;39.15;15.75;;;8.60;99.90;;;;;;5069578;28;20036;-62
2022/11/29 11:50:08;;;;;;;36.08;14.80;;;8.60;99.90;;;;;;5065032;28;20086;-61
2022/11/29 11:52:45;;;;;;;35.70;16.08;;;8.60;99.90;;;;;;5068178;28;20083;-59
2022/11/29 11:55:31;;;;;;;41.43;17.23;;;8.60;99.90;;;;;;5067180;28;20090;-61
2022/11/29 11:57:59;;;;;;;39.10;15.70;;;8.70;99.90;;;;;;5069828;28;20040;-62
2022/11/29 12:00:42;;;;;;;37.75;18.30;;;8.70;99.90;;;;;;5069877;28;20127;-61
2022/11/29 12:03:39;;;;;;;41.92;17.42;;;8.70;99.90;;;;;;5068211;28;20036;-62
2022/11/29 12:06:19;;;;;;;35.17;16.38;;;8.70;99.90;;;;;;5067986;28;20056;-61
2022/11/29 12:08:47;;;;;;;32.45;14.07;;;8.70;99.90;;;;;;5069620;28;20090;-61
2022/11/29 12:11:16;;;;;;;33.85;15.60;;;8.70;99.90;;;;;;5069939;28;20086;-61
2022/11/29 12:13:48;;;;;;;33.60;15.23;;;8.70;99.90;;;;;;5068538;28;20044;-60
2022/11/29 12:16:26;;;;;;;43.40;16.88;;;8.70;99.90;;;;;;5067907;28;20048;-62
2022/11/29 12:18:59;;;;;;;29.33;13.40;;;8.80;99.90;;;;;;5069031;28;20036;-62
2022/11/29 12:21:28;;;;;;;32.97;14.68;;;8.80;99.90;;;;;;5069784;28;20037;-62
2022/11/29 12:24:00;;;;;;;33.17;16.00;;;8.80;99.90;;;;;;5068791;28;20367;-62
2022/11/29 12:26:29;;;;;;;30.75;14.45;;;8.80;99.90;;;;;;5067877;28;20044;-62
2022/11/29 12:28:55;;;;;;;41.63;16.17;;;8.80;99.90;;;;;;5069335;28;20366;-62
2022/11/29 12:31:38;;;;;;;33.47;14.38;;;8.80;99.90;;;;;;5069162;28;20165;-62
2022/11/29 12:34:27;;;;;;;33.20;14.55;;;8.80;99.90;;;;;;5068645;28;20040;-62
2022/11/29 12:37:19;;;;;;;31.25;14.13;;;8.80;99.90;;;;;;5068086;28;20362;-59
2022/11/29 12:39:49;;;;;;;30.85;14.38;;;8.80;99.90;;;;;;5068839;28;20036;-61
2022/11/29 12:42:21;;;;;;;31.80;13.45;;;8.80;99.90;;;;;;5069485;28;20036;-61
2022/11/29 12:45:19;;;;;;;24.50;11.80;;;8.80;99.90;;;;;;5067679;28;20493;-59
2022/11/29 12:48:00;;;;;;;27.30;12.52;;;8.90;99.90;;;;;;5024563;28;20509;-61
2022/11/29 12:50:49;;;;;;;25.35;11.43;;;8.90;99.90;;;;;;5069098;28;20044;-61
2022/11/29 12:53:20;;;;;;;24.90;11.52;;;8.90;99.90;;;;;;5067016;28;20090;-61
2022/11/29 12:55:58;;;;;;;23.88;11.90;;;8.90;99.90;;;;;;5068777;28;20396;-59
2022/11/29 12:58:45;;;;;;;26.08;12.00;;;8.90;99.90;;;;;;5069046;28;20048;-61
2022/11/29 13:01:47;;;;;;;28.08;12.85;;;8.90;99.90;;;;;;5069126;28;20625;-60
2022/11/29 13:04:31;;;;;;;23.00;12.25;;;8.90;99.90;;;;;;5068079;28;20044;-62
2022/11/29 13:07:18;;;;;;;25.88;12.40;;;8.90;99.90;;;;;;5068458;28;20041;-61
2022/11/29 13:10:03;;;;;;;21.13;11.85;;;8.90;99.90;;;;;;5069416;28;20041;-60
2022/11/29 13:12:35;;;;;;;31.08;12.63;;;8.90;99.90;;;;;;5068958;28;20493;-61
2022/11/29 13:15:41;;;;;;;28.50;12.20;;;9.00;99.90;;;;;;5050740;28;20604;-61
2022/11/29 13:18:51;;;;;;;22.35;11.25;;;9.00;99.90;;;;;;5031295;28;20048;-61
2022/11/29 13:21:26;;;;;;;31.75;12.48;;;9.00;99.90;;;;;;4990619;28;20045;-60
2022/11/29 13:24:23;;;;;;;31.17;13.15;;;9.00;99.90;;;;;;4990087;28;20789;-57
2022/11/29 13:26:50;;;;;;;32.10;13.05;;;9.00;99.90;;;;;;5054611;28;20063;-61
2022/11/29 13:29:17;;;;;;;30.38;13.02;;;9.00;99.90;;;;;;5072581;28;20040;-59
2022/11/29 13:31:45;;;;;;;29.67;12.23;;;9.10;99.90;;;;;;5072390;28;20079;-61